Flugplatz Achmer (EDXA)

Hier findest Du alle Informationen zum Flugplatz Achmer (EDXA).

Informationen für Piloten zum Flugplatz Achmer

Hier findest Du alle relevanten Informationen, die Du als Pilot benötigst, um Achmer anzufliegen.

Flugplatz: Achmer ICAO-Code: EDXA
Frequenz Turm: 123,050 Mhz GAFOR Gebiet: 9
Frequenz Ground: 123,050 Mhz Mogas: nein
Platzrunde: N 1000 ft Landegebühr: -
Platzhöhe: - Sunrise: 06:33 Uhr UTC
Pisten: 07/25 - 940 m x 30 m, GRAS Sunset: 16:51 Uhr UTC

Flugwetter am Flugplatz Achmer

Die METAR Information stammen aus EDDG (31.15 km entfernt).

METAR Code:
2020/02/17 10:20
EDDG 171020Z 22016KT 190V250 9999 FEW030 10/03 Q1011 NOSIG

Temperatur: 4,8 °C Niederschlag: - Wind: 8,0 kt
Temperatur (min.): 3,9 °C Luftdruck: 1017 hPa Windrichtung: 190 °
Temperatur (max.): 5,6 °C Luftfeuchtigkeit: 86 % Bewölkung: 6/8

Flugschulen am Flugplatz Achmer

Am Flugplatz Achmer gibt es leider keine Flugschule.

Benachbarte Flugplätze und Flugschulen

Es gibt 12 weitere Flugplätze in einem Umkreis von 50 km um den Flugplatz Achmer.

Jetzt anmelden

Passwort vergessen

Umfrage Archiv

Lasst Ihr Euch bei Überlandflügen von FIS begleiten?

Ja, immer!
43.7 %
Ja, unregelmäßig!
29.6 %
Ja, aber nur selten!
15.6 %
Nein, nie!
11.1 %
Stimmen: 199 | Diskussion
Anzeige: Roland Aircraft
Statistik Alle Mitglieder

Aktuell sind 26 Besucher online, davon 1 Mitglied und 25 Gäste.


Mitglieder online:
ulflugwesterwald 

Anzeige: VFR Sprechfunk Simulator


Anzeige: Pocket FMS